Wall Lake, South Dakota
Current Conditions -  °F | °C
As of 2:56 AM on Wednesday 28 Jan 2015 (Local Time) from KFSD Reporting Station
Clear Clear  
Wind Chill: 26°   Ceiling: Unl
Heat Index: 34°   Visibility: 10mi
Dew Point: 30°   Wind: 10mph
Humidity: 85%   Direction: 140°SE
Pressure: 29.89"   Gusts: NA
Location:  43.6522°N, 96.9799°W
Report Text: KFSD 280856Z AUTO 14009KT 10SM CLR 01/M01 A2989 RMK AO2 SLP134 T00111011 58014
Loading
Personal Weather Stations






























Interactive Weather Map New forecast layout! Learn more

10-Day Weather Forecast

Advertisements
Track Severe Weather on mobile